sensor_id;sensor_type;location;lat;lon;timestamp;P1;durP1;ratioP1;P2;durP2;ratioP2
22034;SDS011;11181;51.002;4.356;2022-09-03T00:02:31;2.53;;;1.43;;
22034;SDS011;11181;51.002;4.356;2022-09-03T00:05:03;2.00;;;1.30;;
22034;SDS011;11181;51.002;4.356;2022-09-03T00:07:38;2.83;;;1.40;;
22034;SDS011;11181;51.002;4.356;2022-09-03T00:10:13;1.40;;;1.30;;
22034;SDS011;11181;51.002;4.356;2022-09-03T00:12:49;3.47;;;1.70;;
22034;SDS011;11181;51.002;4.356;2022-09-03T00:15:18;2.50;;;1.40;;
22034;SDS011;11181;51.002;4.356;2022-09-03T00:17:47;3.90;;;1.43;;
22034;SDS011;11181;51.002;4.356;2022-09-03T00:20:18;2.60;;;1.40;;
22034;SDS011;11181;51.002;4.356;2022-09-03T00:22:48;2.47;;;1.60;;
22034;SDS011;11181;51.002;4.356;2022-09-03T00:25:18;1.83;;;1.63;;
22034;SDS011;11181;51.002;4.356;2022-09-03T00:27:52;3.37;;;1.80;;
22034;SDS011;11181;51.002;4.356;2022-09-03T00:30:21;1.60;;;1.47;;
22034;SDS011;11181;51.002;4.356;2022-09-03T00:32:52;2.03;;;1.40;;
22034;SDS011;11181;51.002;4.356;2022-09-03T00:35:22;2.10;;;1.90;;
22034;SDS011;11181;51.002;4.356;2022-09-03T00:37:53;5.37;;;1.43;;
22034;SDS011;11181;51.002;4.356;2022-09-03T00:40:25;2.00;;;1.80;;
22034;SDS011;11181;51.002;4.356;2022-09-03T00:43:04;2.53;;;1.50;;
22034;SDS011;11181;51.002;4.356;2022-09-03T00:45:40;2.83;;;2.03;;
22034;SDS011;11181;51.002;4.356;2022-09-03T00:48:17;2.80;;;1.83;;
22034;SDS011;11181;51.002;4.356;2022-09-03T00:50:51;2.87;;;1.83;;
22034;SDS011;11181;51.002;4.356;2022-09-03T00:53:37;2.53;;;1.20;;
22034;SDS011;11181;51.002;4.356;2022-09-03T00:56:17;2.20;;;1.50;;
22034;SDS011;11181;51.002;4.356;2022-09-03T00:59:00;5.67;;;1.33;;
22034;SDS011;11181;51.002;4.356;2022-09-03T01:01:34;1.80;;;1.40;;
22034;SDS011;11181;51.002;4.356;2022-09-03T01:04:09;4.27;;;1.63;;
22034;SDS011;11181;51.002;4.356;2022-09-03T01:06:52;1.67;;;1.50;;
22034;SDS011;11181;51.002;4.356;2022-09-03T01:09:29;2.07;;;1.57;;
22034;SDS011;11181;51.002;4.356;2022-09-03T01:12:05;3.77;;;1.60;;
22034;SDS011;11181;51.002;4.356;2022-09-03T01:14:44;5.13;;;1.50;;
22034;SDS011;11181;51.002;4.356;2022-09-03T01:17:23;4.50;;;1.80;;
22034;SDS011;11181;51.002;4.356;2022-09-03T01:20:02;2.13;;;1.50;;
22034;SDS011;11181;51.002;4.356;2022-09-03T01:22:49;2.90;;;1.50;;
22034;SDS011;11181;51.002;4.356;2022-09-03T01:25:37;2.00;;;1.80;;
22034;SDS011;11181;51.002;4.356;2022-09-03T01:28:20;3.43;;;1.53;;
22034;SDS011;11181;51.002;4.356;2022-09-03T01:30:59;3.17;;;1.73;;
22034;SDS011;11181;51.002;4.356;2022-09-03T01:33:36;2.00;;;1.43;;
22034;SDS011;11181;51.002;4.356;2022-09-03T01:36:10;2.37;;;1.90;;
22034;SDS011;11181;51.002;4.356;2022-09-03T01:38:44;1.50;;;1.40;;
22034;SDS011;11181;51.002;4.356;2022-09-03T01:41:18;1.20;;;1.10;;
22034;SDS011;11181;51.002;4.356;2022-09-03T01:44:12;3.50;;;1.37;;
22034;SDS011;11181;51.002;4.356;2022-09-03T01:46:48;1.53;;;1.43;;
22034;SDS011;11181;51.002;4.356;2022-09-03T01:49:23;3.80;;;1.67;;
22034;SDS011;11181;51.002;4.356;2022-09-03T01:51:59;2.00;;;1.43;;
22034;SDS011;11181;51.002;4.356;2022-09-03T01:54:41;3.50;;;1.43;;
22034;SDS011;11181;51.002;4.356;2022-09-03T01:57:34;3.93;;;1.33;;
22034;SDS011;11181;51.002;4.356;2022-09-03T02:00:11;2.13;;;1.27;;
22034;SDS011;11181;51.002;4.356;2022-09-03T02:02:39;1.50;;;1.40;;
22034;SDS011;11181;51.002;4.356;2022-09-03T02:05:08;2.27;;;1.40;;
22034;SDS011;11181;51.002;4.356;2022-09-03T02:07:39;1.40;;;1.30;;
22034;SDS011;11181;51.002;4.356;2022-09-03T02:10:08;3.77;;;1.30;;
22034;SDS011;11181;51.002;4.356;2022-09-03T02:12:38;1.57;;;1.40;;
22034;SDS011;11181;51.002;4.356;2022-09-03T02:15:11;2.33;;;1.43;;
22034;SDS011;11181;51.002;4.356;2022-09-03T02:17:40;1.47;;;1.37;;
22034;SDS011;11181;51.002;4.356;2022-09-03T02:20:11;1.47;;;1.37;;
22034;SDS011;11181;51.002;4.356;2022-09-03T02:22:43;1.80;;;1.47;;
22034;SDS011;11181;51.002;4.356;2022-09-03T02:25:10;3.87;;;2.00;;
22034;SDS011;11181;51.002;4.356;2022-09-03T02:27:38;3.30;;;1.70;;
22034;SDS011;11181;51.002;4.356;2022-09-03T02:30:05;1.60;;;1.50;;
22034;SDS011;11181;51.002;4.356;2022-09-03T02:32:35;1.43;;;1.30;;
22034;SDS011;11181;51.002;4.356;2022-09-03T02:35:02;1.83;;;1.13;;
22034;SDS011;11181;51.002;4.356;2022-09-03T02:37:29;3.43;;;1.50;;
22034;SDS011;11181;51.002;4.356;2022-09-03T02:39:56;1.47;;;1.37;;
22034;SDS011;11181;51.002;4.356;2022-09-03T02:42:23;3.23;;;1.60;;
22034;SDS011;11181;51.002;4.356;2022-09-03T02:44:51;2.80;;;1.73;;
22034;SDS011;11181;51.002;4.356;2022-09-03T02:47:21;1.60;;;1.40;;
22034;SDS011;11181;51.002;4.356;2022-09-03T02:49:56;5.17;;;1.60;;
22034;SDS011;11181;51.002;4.356;2022-09-03T02:52:23;3.60;;;1.47;;
22034;SDS011;11181;51.002;4.356;2022-09-03T02:54:49;3.70;;;1.57;;
22034;SDS011;11181;51.002;4.356;2022-09-03T02:57:16;1.93;;;1.33;;
22034;SDS011;11181;51.002;4.356;2022-09-03T02:59:43;1.50;;;1.30;;
22034;SDS011;11181;51.002;4.356;2022-09-03T03:02:10;2.00;;;1.60;;
22034;SDS011;11181;51.002;4.356;2022-09-03T03:04:38;2.37;;;1.47;;
22034;SDS011;11181;51.002;4.356;2022-09-03T03:07:06;8.57;;;1.73;;
22034;SDS011;11181;51.002;4.356;2022-09-03T03:09:33;1.40;;;1.10;;
22034;SDS011;11181;51.002;4.356;2022-09-03T03:12:00;1.50;;;1.40;;
22034;SDS011;11181;51.002;4.356;2022-09-03T03:14:28;4.53;;;1.50;;
22034;SDS011;11181;51.002;4.356;2022-09-03T03:16:54;2.27;;;1.57;;
22034;SDS011;11181;51.002;4.356;2022-09-03T03:19:21;2.50;;;1.10;;
22034;SDS011;11181;51.002;4.356;2022-09-03T03:21:48;1.87;;;1.10;;
22034;SDS011;11181;51.002;4.356;2022-09-03T03:24:16;1.40;;;1.30;;
22034;SDS011;11181;51.002;4.356;2022-09-03T03:26:43;3.47;;;1.50;;
22034;SDS011;11181;51.002;4.356;2022-09-03T03:29:13;2.50;;;1.50;;
22034;SDS011;11181;51.002;4.356;2022-09-03T03:31:42;1.23;;;1.13;;
22034;SDS011;11181;51.002;4.356;2022-09-03T03:34:09;2.17;;;1.30;;
22034;SDS011;11181;51.002;4.356;2022-09-03T03:36:36;1.30;;;1.20;;
22034;SDS011;11181;51.002;4.356;2022-09-03T03:39:03;3.20;;;2.20;;
22034;SDS011;11181;51.002;4.356;2022-09-03T03:41:31;2.13;;;1.50;;
22034;SDS011;11181;51.002;4.356;2022-09-03T03:44:00;2.60;;;1.70;;
22034;SDS011;11181;51.002;4.356;2022-09-03T03:46:28;4.43;;;1.67;;
22034;SDS011;11181;51.002;4.356;2022-09-03T03:48:56;4.47;;;1.60;;
22034;SDS011;11181;51.002;4.356;2022-09-03T03:51:24;1.80;;;1.50;;
22034;SDS011;11181;51.002;4.356;2022-09-03T03:53:52;3.43;;;1.40;;
22034;SDS011;11181;51.002;4.356;2022-09-03T03:56:20;1.50;;;1.40;;
22034;SDS011;11181;51.002;4.356;2022-09-03T03:58:49;2.53;;;1.50;;
22034;SDS011;11181;51.002;4.356;2022-09-03T04:01:19;1.83;;;1.37;;
22034;SDS011;11181;51.002;4.356;2022-09-03T04:03:47;2.77;;;1.87;;
22034;SDS011;11181;51.002;4.356;2022-09-03T04:06:14;1.37;;;1.27;;
22034;SDS011;11181;51.002;4.356;2022-09-03T04:08:43;4.60;;;1.60;;
22034;SDS011;11181;51.002;4.356;2022-09-03T04:11:12;1.67;;;1.23;;
22034;SDS011;11181;51.002;4.356;2022-09-03T04:13:41;3.37;;;1.30;;
22034;SDS011;11181;51.002;4.356;2022-09-03T04:16:11;2.60;;;1.93;;
22034;SDS011;11181;51.002;4.356;2022-09-03T04:18:38;2.70;;;1.63;;
22034;SDS011;11181;51.002;4.356;2022-09-03T04:21:07;1.70;;;1.60;;
22034;SDS011;11181;51.002;4.356;2022-09-03T04:23:36;1.30;;;1.20;;
22034;SDS011;11181;51.002;4.356;2022-09-03T04:26:04;2.43;;;1.50;;
22034;SDS011;11181;51.002;4.356;2022-09-03T04:28:32;2.23;;;1.43;;
22034;SDS011;11181;51.002;4.356;2022-09-03T04:30:59;1.97;;;1.40;;
22034;SDS011;11181;51.002;4.356;2022-09-03T04:33:29;1.40;;;1.30;;
22034;SDS011;11181;51.002;4.356;2022-09-03T04:36:03;2.33;;;1.63;;
22034;SDS011;11181;51.002;4.356;2022-09-03T04:38:31;3.07;;;1.50;;
22034;SDS011;11181;51.002;4.356;2022-09-03T04:40:58;2.27;;;1.50;;
22034;SDS011;11181;51.002;4.356;2022-09-03T04:43:26;5.83;;;1.70;;
22034;SDS011;11181;51.002;4.356;2022-09-03T04:45:56;3.63;;;1.70;;
22034;SDS011;11181;51.002;4.356;2022-09-03T04:48:24;3.80;;;1.70;;
22034;SDS011;11181;51.002;4.356;2022-09-03T04:50:52;3.97;;;1.70;;
22034;SDS011;11181;51.002;4.356;2022-09-03T04:53:20;3.43;;;2.00;;
22034;SDS011;11181;51.002;4.356;2022-09-03T04:55:48;2.20;;;1.80;;
22034;SDS011;11181;51.002;4.356;2022-09-03T04:58:15;2.90;;;2.00;;
22034;SDS011;11181;51.002;4.356;2022-09-03T05:00:42;2.57;;;2.00;;
22034;SDS011;11181;51.002;4.356;2022-09-03T05:03:09;1.90;;;1.53;;
22034;SDS011;11181;51.002;4.356;2022-09-03T05:05:36;2.40;;;2.00;;
22034;SDS011;11181;51.002;4.356;2022-09-03T05:08:04;3.07;;;1.97;;
22034;SDS011;11181;51.002;4.356;2022-09-03T05:10:32;4.47;;;2.00;;
22034;SDS011;11181;51.002;4.356;2022-09-03T05:12:59;3.57;;;1.90;;
22034;SDS011;11181;51.002;4.356;2022-09-03T05:15:27;3.40;;;2.03;;
22034;SDS011;11181;51.002;4.356;2022-09-03T05:17:55;1.63;;;1.53;;
22034;SDS011;11181;51.002;4.356;2022-09-03T05:20:23;2.27;;;1.90;;
22034;SDS011;11181;51.002;4.356;2022-09-03T05:22:50;3.80;;;2.20;;
22034;SDS011;11181;51.002;4.356;2022-09-03T05:25:19;4.70;;;2.17;;
22034;SDS011;11181;51.002;4.356;2022-09-03T05:27:46;2.80;;;1.90;;
22034;SDS011;11181;51.002;4.356;2022-09-03T05:30:14;3.90;;;2.30;;
22034;SDS011;11181;51.002;4.356;2022-09-03T05:32:41;4.63;;;2.77;;
22034;SDS011;11181;51.002;4.356;2022-09-03T05:35:08;5.90;;;2.80;;
22034;SDS011;11181;51.002;4.356;2022-09-03T05:37:35;4.30;;;2.23;;
22034;SDS011;11181;51.002;4.356;2022-09-03T05:40:04;4.20;;;2.50;;
22034;SDS011;11181;51.002;4.356;2022-09-03T05:42:34;4.03;;;2.60;;
22034;SDS011;11181;51.002;4.356;2022-09-03T05:45:02;2.80;;;2.40;;
22034;SDS011;11181;51.002;4.356;2022-09-03T05:47:30;4.83;;;2.97;;
22034;SDS011;11181;51.002;4.356;2022-09-03T05:49:57;3.77;;;2.33;;
22034;SDS011;11181;51.002;4.356;2022-09-03T05:52:24;3.20;;;2.73;;
22034;SDS011;11181;51.002;4.356;2022-09-03T05:54:52;2.63;;;2.43;;
22034;SDS011;11181;51.002;4.356;2022-09-03T05:57:18;4.37;;;2.83;;
22034;SDS011;11181;51.002;4.356;2022-09-03T05:59:47;5.20;;;3.00;;
22034;SDS011;11181;51.002;4.356;2022-09-03T06:02:13;5.57;;;3.00;;
22034;SDS011;11181;51.002;4.356;2022-09-03T06:04:41;3.20;;;2.33;;
22034;SDS011;11181;51.002;4.356;2022-09-03T06:07:08;3.27;;;2.47;;
22034;SDS011;11181;51.002;4.356;2022-09-03T06:09:35;4.47;;;2.53;;
22034;SDS011;11181;51.002;4.356;2022-09-03T06:12:02;4.93;;;3.00;;
22034;SDS011;11181;51.002;4.356;2022-09-03T06:14:29;4.47;;;2.83;;
22034;SDS011;11181;51.002;4.356;2022-09-03T06:16:58;2.57;;;2.30;;
22034;SDS011;11181;51.002;4.356;2022-09-03T06:19:25;3.27;;;2.67;;
22034;SDS011;11181;51.002;4.356;2022-09-03T06:21:51;4.50;;;2.50;;
22034;SDS011;11181;51.002;4.356;2022-09-03T06:24:19;3.20;;;2.70;;
22034;SDS011;11181;51.002;4.356;2022-09-03T06:26:47;4.27;;;2.67;;
22034;SDS011;11181;51.002;4.356;2022-09-03T06:29:15;6.37;;;2.77;;
22034;SDS011;11181;51.002;4.356;2022-09-03T06:31:43;2.50;;;2.30;;
22034;SDS011;11181;51.002;4.356;2022-09-03T06:34:11;4.80;;;2.30;;
22034;SDS011;11181;51.002;4.356;2022-09-03T06:36:38;5.43;;;2.57;;
22034;SDS011;11181;51.002;4.356;2022-09-03T06:39:06;3.53;;;2.37;;
22034;SDS011;11181;51.002;4.356;2022-09-03T06:41:33;2.47;;;2.10;;
22034;SDS011;11181;51.002;4.356;2022-09-03T06:44:00;3.07;;;2.67;;
22034;SDS011;11181;51.002;4.356;2022-09-03T06:46:29;2.87;;;2.10;;
22034;SDS011;11181;51.002;4.356;2022-09-03T06:48:57;2.20;;;2.00;;
22034;SDS011;11181;51.002;4.356;2022-09-03T06:51:26;2.90;;;2.70;;
22034;SDS011;11181;51.002;4.356;2022-09-03T06:53:58;3.53;;;2.50;;
22034;SDS011;11181;51.002;4.356;2022-09-03T06:56:25;5.60;;;2.17;;
22034;SDS011;11181;51.002;4.356;2022-09-03T06:58:54;2.17;;;1.97;;
22034;SDS011;11181;51.002;4.356;2022-09-03T07:01:23;4.73;;;2.13;;
22034;SDS011;11181;51.002;4.356;2022-09-03T07:03:51;3.13;;;2.27;;
22034;SDS011;11181;51.002;4.356;2022-09-03T07:06:21;4.33;;;2.03;;
22034;SDS011;11181;51.002;4.356;2022-09-03T07:08:51;4.57;;;2.23;;
22034;SDS011;11181;51.002;4.356;2022-09-03T07:11:20;2.47;;;2.03;;
22034;SDS011;11181;51.002;4.356;2022-09-03T07:13:50;3.33;;;2.57;;
22034;SDS011;11181;51.002;4.356;2022-09-03T07:16:18;4.07;;;2.70;;
22034;SDS011;11181;51.002;4.356;2022-09-03T07:18:46;2.63;;;2.20;;
22034;SDS011;11181;51.002;4.356;2022-09-03T07:21:14;3.10;;;2.47;;
22034;SDS011;11181;51.002;4.356;2022-09-03T07:23:42;2.67;;;2.43;;
22034;SDS011;11181;51.002;4.356;2022-09-03T07:26:13;3.57;;;2.43;;
22034;SDS011;11181;51.002;4.356;2022-09-03T07:28:41;4.73;;;2.53;;
22034;SDS011;11181;51.002;4.356;2022-09-03T07:31:10;3.33;;;2.80;;
22034;SDS011;11181;51.002;4.356;2022-09-03T07:33:39;5.53;;;2.30;;
22034;SDS011;11181;51.002;4.356;2022-09-03T07:36:08;5.43;;;2.53;;
22034;SDS011;11181;51.002;4.356;2022-09-03T07:38:36;2.83;;;2.10;;
22034;SDS011;11181;51.002;4.356;2022-09-03T07:41:04;2.80;;;2.27;;
22034;SDS011;11181;51.002;4.356;2022-09-03T07:43:34;6.07;;;2.57;;
22034;SDS011;11181;51.002;4.356;2022-09-03T07:46:04;2.60;;;2.33;;
22034;SDS011;11181;51.002;4.356;2022-09-03T07:48:32;3.33;;;2.17;;
22034;SDS011;11181;51.002;4.356;2022-09-03T07:50:59;3.07;;;2.33;;
22034;SDS011;11181;51.002;4.356;2022-09-03T07:53:27;3.30;;;2.97;;
22034;SDS011;11181;51.002;4.356;2022-09-03T07:55:59;2.40;;;2.20;;
22034;SDS011;11181;51.002;4.356;2022-09-03T07:58:27;4.53;;;2.70;;
22034;SDS011;11181;51.002;4.356;2022-09-03T08:00:56;2.93;;;2.73;;
22034;SDS011;11181;51.002;4.356;2022-09-03T08:03:23;4.53;;;2.47;;
22034;SDS011;11181;51.002;4.356;2022-09-03T08:05:50;3.47;;;2.50;;
22034;SDS011;11181;51.002;4.356;2022-09-03T08:08:18;4.30;;;2.67;;
22034;SDS011;11181;51.002;4.356;2022-09-03T08:10:45;6.47;;;2.83;;
22034;SDS011;11181;51.002;4.356;2022-09-03T08:13:12;3.43;;;2.70;;
22034;SDS011;11181;51.002;4.356;2022-09-03T08:15:39;4.83;;;3.20;;
22034;SDS011;11181;51.002;4.356;2022-09-03T08:18:08;5.93;;;2.40;;
22034;SDS011;11181;51.002;4.356;2022-09-03T08:20:35;3.97;;;2.67;;
22034;SDS011;11181;51.002;4.356;2022-09-03T08:23:03;3.17;;;2.27;;
22034;SDS011;11181;51.002;4.356;2022-09-03T08:25:30;4.10;;;2.93;;
22034;SDS011;11181;51.002;4.356;2022-09-03T08:27:58;3.50;;;2.73;;
22034;SDS011;11181;51.002;4.356;2022-09-03T08:30:27;3.50;;;2.83;;
22034;SDS011;11181;51.002;4.356;2022-09-03T08:32:54;3.93;;;2.97;;
22034;SDS011;11181;51.002;4.356;2022-09-03T08:35:22;2.90;;;2.53;;
22034;SDS011;11181;51.002;4.356;2022-09-03T08:37:49;3.20;;;2.87;;
22034;SDS011;11181;51.002;4.356;2022-09-03T08:40:18;2.77;;;2.57;;
22034;SDS011;11181;51.002;4.356;2022-09-03T08:42:55;3.93;;;3.00;;
22034;SDS011;11181;51.002;4.356;2022-09-03T08:45:30;4.97;;;3.20;;
22034;SDS011;11181;51.002;4.356;2022-09-03T08:48:00;4.93;;;3.13;;
22034;SDS011;11181;51.002;4.356;2022-09-03T08:50:35;2.90;;;2.50;;
22034;SDS011;11181;51.002;4.356;2022-09-03T08:53:07;3.30;;;2.70;;
22034;SDS011;11181;51.002;4.356;2022-09-03T08:55:41;5.53;;;3.25;;
22034;SDS011;11181;51.002;4.356;2022-09-03T08:58:15;7.13;;;3.22;;
22034;SDS011;11181;51.002;4.356;2022-09-03T09:00:48;4.65;;;2.80;;
22034;SDS011;11181;51.002;4.356;2022-09-03T09:06:13;4.00;;;3.20;;
22034;SDS011;11181;51.002;4.356;2022-09-03T09:08:48;5.50;;;3.40;;
22034;SDS011;11181;51.002;4.356;2022-09-03T09:11:26;5.60;;;3.28;;
22034;SDS011;11181;51.002;4.356;2022-09-03T09:14:02;3.70;;;3.13;;
22034;SDS011;11181;51.002;4.356;2022-09-03T09:16:38;3.90;;;3.38;;
22034;SDS011;11181;51.002;4.356;2022-09-03T09:19:16;4.03;;;2.97;;
22034;SDS011;11181;51.002;4.356;2022-09-03T09:21:56;4.13;;;3.50;;
22034;SDS011;11181;51.002;4.356;2022-09-03T09:24:27;5.47;;;2.67;;
22034;SDS011;11181;51.002;4.356;2022-09-03T09:27:02;3.70;;;3.08;;
22034;SDS011;11181;51.002;4.356;2022-09-03T09:29:31;3.20;;;2.83;;
22034;SDS011;11181;51.002;4.356;2022-09-03T09:32:01;3.72;;;2.95;;
22034;SDS011;11181;51.002;4.356;2022-09-03T09:34:32;6.85;;;2.97;;
22034;SDS011;11181;51.002;4.356;2022-09-03T09:37:02;5.53;;;3.40;;
22034;SDS011;11181;51.002;4.356;2022-09-03T09:39:32;3.42;;;3.13;;
22034;SDS011;11181;51.002;4.356;2022-09-03T09:42:00;6.28;;;3.03;;
22034;SDS011;11181;51.002;4.356;2022-09-03T09:44:33;5.50;;;3.38;;
22034;SDS011;11181;51.002;4.356;2022-09-03T09:47:01;4.82;;;3.13;;
22034;SDS011;11181;51.002;4.356;2022-09-03T09:49:31;5.28;;;3.70;;
22034;SDS011;11181;51.002;4.356;2022-09-03T09:52:09;7.20;;;3.30;;
22034;SDS011;11181;51.002;4.356;2022-09-03T09:54:37;5.32;;;3.65;;
22034;SDS011;11181;51.002;4.356;2022-09-03T09:57:06;5.22;;;3.47;;
22034;SDS011;11181;51.002;4.356;2022-09-03T09:59:41;5.65;;;3.17;;
22034;SDS011;11181;51.002;4.356;2022-09-03T10:02:10;4.88;;;3.33;;
22034;SDS011;11181;51.002;4.356;2022-09-03T10:04:39;4.03;;;3.08;;
22034;SDS011;11181;51.002;4.356;2022-09-03T10:07:17;6.15;;;3.78;;
22034;SDS011;11181;51.002;4.356;2022-09-03T10:09:57;5.72;;;3.90;;
22034;SDS011;11181;51.002;4.356;2022-09-03T10:12:27;6.10;;;4.10;;
22034;SDS011;11181;51.002;4.356;2022-09-03T10:14:59;7.57;;;4.45;;
22034;SDS011;11181;51.002;4.356;2022-09-03T10:17:38;5.03;;;4.30;;
22034;SDS011;11181;51.002;4.356;2022-09-03T10:20:11;4.03;;;3.50;;
22034;SDS011;11181;51.002;4.356;2022-09-03T10:22:56;5.88;;;4.15;;
22034;SDS011;11181;51.002;4.356;2022-09-03T10:25:29;3.65;;;3.13;;
22034;SDS011;11181;51.002;4.356;2022-09-03T10:28:04;5.38;;;3.63;;
22034;SDS011;11181;51.002;4.356;2022-09-03T10:30:36;5.60;;;3.85;;
22034;SDS011;11181;51.002;4.356;2022-09-03T10:33:14;3.63;;;3.33;;
22034;SDS011;11181;51.002;4.356;2022-09-03T10:35:49;4.50;;;3.25;;
22034;SDS011;11181;51.002;4.356;2022-09-03T10:38:23;5.22;;;3.53;;
22034;SDS011;11181;51.002;4.356;2022-09-03T10:40:58;6.30;;;3.60;;
22034;SDS011;11181;51.002;4.356;2022-09-03T10:46:24;5.13;;;4.47;;
22034;SDS011;11181;51.002;4.356;2022-09-03T10:49:01;3.72;;;3.17;;
22034;SDS011;11181;51.002;4.356;2022-09-03T10:51:43;4.82;;;3.33;;
22034;SDS011;11181;51.002;4.356;2022-09-03T10:57:14;6.15;;;3.53;;
22034;SDS011;11181;51.002;4.356;2022-09-03T10:59:58;4.28;;;3.75;;
22034;SDS011;11181;51.002;4.356;2022-09-03T11:05:26;4.82;;;3.78;;
22034;SDS011;11181;51.002;4.356;2022-09-03T11:07:57;4.18;;;3.78;;
22034;SDS011;11181;51.002;4.356;2022-09-03T11:10:28;5.20;;;4.53;;
22034;SDS011;11181;51.002;4.356;2022-09-03T11:13:00;6.15;;;3.45;;
22034;SDS011;11181;51.002;4.356;2022-09-03T11:15:33;5.07;;;3.88;;
22034;SDS011;11181;51.002;4.356;2022-09-03T11:18:06;3.65;;;3.20;;
22034;SDS011;11181;51.002;4.356;2022-09-03T11:20:40;3.72;;;3.42;;
22034;SDS011;11181;51.002;4.356;2022-09-03T11:23:08;4.22;;;3.25;;
22034;SDS011;11181;51.002;4.356;2022-09-03T11:25:40;9.02;;;3.60;;
22034;SDS011;11181;51.002;4.356;2022-09-03T11:28:12;5.97;;;2.85;;
22034;SDS011;11181;51.002;4.356;2022-09-03T11:30:48;4.85;;;2.95;;
22034;SDS011;11181;51.002;4.356;2022-09-03T11:33:29;3.00;;;2.72;;
22034;SDS011;11181;51.002;4.356;2022-09-03T11:36:04;5.47;;;3.90;;
22034;SDS011;11181;51.002;4.356;2022-09-03T11:38:32;6.22;;;3.47;;
22034;SDS011;11181;51.002;4.356;2022-09-03T11:41:09;3.15;;;2.85;;
22034;SDS011;11181;51.002;4.356;2022-09-03T11:43:39;6.30;;;3.45;;
22034;SDS011;11181;51.002;4.356;2022-09-03T11:46:08;5.03;;;2.70;;
22034;SDS011;11181;51.002;4.356;2022-09-03T11:48:39;3.42;;;2.72;;
22034;SDS011;11181;51.002;4.356;2022-09-03T11:51:17;8.95;;;3.83;;
22034;SDS011;11181;51.002;4.356;2022-09-03T11:54:02;5.85;;;3.40;;
22034;SDS011;11181;51.002;4.356;2022-09-03T11:56:32;4.07;;;3.17;;
22034;SDS011;11181;51.002;4.356;2022-09-03T11:59:02;4.70;;;3.53;;
22034;SDS011;11181;51.002;4.356;2022-09-03T12:01:32;5.20;;;3.38;;
22034;SDS011;11181;51.002;4.356;2022-09-03T12:04:02;4.50;;;2.95;;
22034;SDS011;11181;51.002;4.356;2022-09-03T12:06:42;4.60;;;3.72;;
22034;SDS011;11181;51.002;4.356;2022-09-03T12:09:48;6.05;;;3.00;;
22034;SDS011;11181;51.002;4.356;2022-09-03T12:12:44;3.30;;;3.00;;
22034;SDS011;11181;51.002;4.356;2022-09-03T12:15:28;4.95;;;3.78;;
22034;SDS011;11181;51.002;4.356;2022-09-03T12:18:12;4.05;;;3.65;;
22034;SDS011;11181;51.002;4.356;2022-09-03T12:20:46;4.70;;;3.65;;
22034;SDS011;11181;51.002;4.356;2022-09-03T12:23:26;4.38;;;3.58;;
22034;SDS011;11181;51.002;4.356;2022-09-03T12:25:54;4.60;;;4.20;;
22034;SDS011;11181;51.002;4.356;2022-09-03T12:28:24;4.22;;;3.60;;
22034;SDS011;11181;51.002;4.356;2022-09-03T12:31:04;3.40;;;2.58;;
22034;SDS011;11181;51.002;4.356;2022-09-03T12:33:45;2.80;;;2.45;;
22034;SDS011;11181;51.002;4.356;2022-09-03T12:36:13;3.00;;;2.75;;
22034;SDS011;11181;51.002;4.356;2022-09-03T12:38:41;3.17;;;2.88;;
22034;SDS011;11181;51.002;4.356;2022-09-03T12:41:18;4.30;;;2.40;;
22034;SDS011;11181;51.002;4.356;2022-09-03T12:43:53;2.92;;;2.63;;
22034;SDS011;11181;51.002;4.356;2022-09-03T12:46:24;2.90;;;2.38;;
22034;SDS011;11181;51.002;4.356;2022-09-03T12:48:53;3.53;;;2.38;;
22034;SDS011;11181;51.002;4.356;2022-09-03T12:51:23;3.33;;;2.50;;
22034;SDS011;11181;51.002;4.356;2022-09-03T12:53:50;1.98;;;1.88;;
22034;SDS011;11181;51.002;4.356;2022-09-03T12:56:18;2.83;;;2.05;;
22034;SDS011;11181;51.002;4.356;2022-09-03T12:58:48;2.67;;;2.25;;
22034;SDS011;11181;51.002;4.356;2022-09-03T13:01:21;2.75;;;2.55;;
22034;SDS011;11181;51.002;4.356;2022-09-03T13:03:56;5.90;;;2.63;;
22034;SDS011;11181;51.002;4.356;2022-09-03T13:06:28;3.13;;;2.78;;
22034;SDS011;11181;51.002;4.356;2022-09-03T13:08:59;5.07;;;2.97;;
22034;SDS011;11181;51.002;4.356;2022-09-03T13:11:31;3.50;;;3.22;;
22034;SDS011;11181;51.002;4.356;2022-09-03T13:14:01;5.40;;;3.10;;
22034;SDS011;11181;51.002;4.356;2022-09-03T13:16:42;3.97;;;3.10;;
22034;SDS011;11181;51.002;4.356;2022-09-03T13:19:19;2.92;;;2.60;;
22034;SDS011;11181;51.002;4.356;2022-09-03T13:21:53;3.25;;;2.20;;
22034;SDS011;11181;51.002;4.356;2022-09-03T13:27:25;3.63;;;3.20;;
22034;SDS011;11181;51.002;4.356;2022-09-03T13:30:00;2.55;;;2.35;;
22034;SDS011;11181;51.002;4.356;2022-09-03T13:32:38;2.75;;;2.55;;
22034;SDS011;11181;51.002;4.356;2022-09-03T13:35:11;2.80;;;2.60;;
22034;SDS011;11181;51.002;4.356;2022-09-03T13:37:44;2.75;;;2.40;;
22034;SDS011;11181;51.002;4.356;2022-09-03T13:40:18;2.95;;;2.67;;
22034;SDS011;11181;51.002;4.356;2022-09-03T13:42:52;3.65;;;2.65;;
22034;SDS011;11181;51.002;4.356;2022-09-03T13:45:26;2.80;;;2.60;;
22034;SDS011;11181;51.002;4.356;2022-09-03T13:47:58;3.45;;;2.83;;
22034;SDS011;11181;51.002;4.356;2022-09-03T13:50:50;4.65;;;2.50;;
22034;SDS011;11181;51.002;4.356;2022-09-03T13:53:27;4.85;;;2.50;;
22034;SDS011;11181;51.002;4.356;2022-09-03T13:56:03;3.95;;;2.55;;
22034;SDS011;11181;51.002;4.356;2022-09-03T13:58:42;4.03;;;2.72;;
22034;SDS011;11181;51.002;4.356;2022-09-03T14:01:14;3.17;;;2.95;;
22034;SDS011;11181;51.002;4.356;2022-09-03T14:03:50;2.80;;;2.60;;
22034;SDS011;11181;51.002;4.356;2022-09-03T14:06:23;6.32;;;2.90;;
22034;SDS011;11181;51.002;4.356;2022-09-03T14:09:05;5.13;;;3.00;;
22034;SDS011;11181;51.002;4.356;2022-09-03T14:11:45;4.28;;;2.83;;
22034;SDS011;11181;51.002;4.356;2022-09-03T14:14:20;2.88;;;2.67;;
22034;SDS011;11181;51.002;4.356;2022-09-03T14:17:01;3.60;;;3.30;;
22034;SDS011;11181;51.002;4.356;2022-09-03T14:19:38;5.88;;;3.03;;
22034;SDS011;11181;51.002;4.356;2022-09-03T14:22:12;6.85;;;3.00;;
22034;SDS011;11181;51.002;4.356;2022-09-03T14:24:45;2.95;;;2.72;;
22034;SDS011;11181;51.002;4.356;2022-09-03T14:27:25;2.47;;;2.28;;
22034;SDS011;11181;51.002;4.356;2022-09-03T14:29:57;3.38;;;2.67;;
22034;SDS011;11181;51.002;4.356;2022-09-03T14:32:29;4.38;;;2.60;;
22034;SDS011;11181;51.002;4.356;2022-09-03T14:35:15;3.70;;;3.10;;
22034;SDS011;11181;51.002;4.356;2022-09-03T14:38:15;3.80;;;2.92;;
22034;SDS011;11181;51.002;4.356;2022-09-03T14:41:04;3.22;;;2.75;;
22034;SDS011;11181;51.002;4.356;2022-09-03T14:43:46;2.75;;;2.55;;
22034;SDS011;11181;51.002;4.356;2022-09-03T14:46:31;4.45;;;2.55;;
22034;SDS011;11181;51.002;4.356;2022-09-03T14:49:11;5.07;;;2.80;;
22034;SDS011;11181;51.002;4.356;2022-09-03T14:51:56;3.00;;;2.70;;
22034;SDS011;11181;51.002;4.356;2022-09-03T14:54:39;3.88;;;2.78;;
22034;SDS011;11181;51.002;4.356;2022-09-03T14:57:20;2.50;;;2.30;;
22034;SDS011;11181;51.002;4.356;2022-09-03T15:00:01;3.50;;;2.53;;
22034;SDS011;11181;51.002;4.356;2022-09-03T15:02:40;3.63;;;2.47;;
22034;SDS011;11181;51.002;4.356;2022-09-03T15:05:30;2.63;;;2.42;;
22034;SDS011;11181;51.002;4.356;2022-09-03T15:08:10;3.58;;;2.53;;
22034;SDS011;11181;51.002;4.356;2022-09-03T15:10:45;4.82;;;2.83;;
22034;SDS011;11181;51.002;4.356;2022-09-03T15:13:18;2.70;;;2.50;;
22034;SDS011;11181;51.002;4.356;2022-09-03T15:15:51;2.60;;;2.40;;
22034;SDS011;11181;51.002;4.356;2022-09-03T15:18:36;4.68;;;2.85;;
22034;SDS011;11181;51.002;4.356;2022-09-03T15:21:15;3.17;;;2.60;;
22034;SDS011;11181;51.002;4.356;2022-09-03T15:23:54;3.33;;;2.40;;
22034;SDS011;11181;51.002;4.356;2022-09-03T15:26:38;4.15;;;2.38;;
22034;SDS011;11181;51.002;4.356;2022-09-03T15:29:25;7.03;;;2.30;;
22034;SDS011;11181;51.002;4.356;2022-09-03T15:32:05;4.30;;;2.33;;
22034;SDS011;11181;51.002;4.356;2022-09-03T15:34:42;4.85;;;2.40;;